N112 KPWM-MA36
Flight info
| Callsign | N112 |
|---|---|
| Flight time | 0h 31m |
| Altitude | VFR/025 |
| Route | |
| Aircraft | P28A/L-DOV/C |
Departure
| Time | 2026-05-03 20:15 |
|---|---|
| Airport | Portland International Jetport (KPWM) |
Arrival
| Time | 2026-05-03 20:46 |
|---|---|
| Airport | Snow Airport (MA36) |
| Time | Latitude | Longitude | Altitude | Speed | Heading |
|---|---|---|---|---|---|
| 2026-05-03 20:15 | 43.58195 | -70.37151 | 2547 ft | 134 kts | 211° |
| 2026-05-03 20:15 | 43.57324 | -70.37619 | 2544 ft | 135 kts | 211° |
| 2026-05-03 20:15 | 43.56442 | -70.38090 | 2544 ft | 136 kts | 210° |
| 2026-05-03 20:15 | 43.55562 | -70.38558 | 2541 ft | 135 kts | 210° |
| 2026-05-03 20:16 | 43.54692 | -70.39023 | 2545 ft | 134 kts | 211° |
| 2026-05-03 20:16 | 43.53815 | -70.39491 | 2545 ft | 137 kts | 210° |
| 2026-05-03 20:16 | 43.52921 | -70.39969 | 2543 ft | 138 kts | 210° |
| 2026-05-03 20:16 | 43.52042 | -70.40436 | 2546 ft | 137 kts | 210° |
| 2026-05-03 20:17 | 43.51154 | -70.40909 | 2547 ft | 137 kts | 210° |
| 2026-05-03 20:17 | 43.50263 | -70.41384 | 2548 ft | 138 kts | 210° |
| 2026-05-03 20:17 | 43.49363 | -70.41864 | 2553 ft | 139 kts | 210° |
| 2026-05-03 20:17 | 43.48460 | -70.42343 | 2542 ft | 139 kts | 210° |
| 2026-05-03 20:18 | 43.47566 | -70.42818 | 2540 ft | 137 kts | 211° |
| 2026-05-03 20:18 | 43.46682 | -70.43288 | 2550 ft | 136 kts | 210° |
| 2026-05-03 20:18 | 43.45798 | -70.43760 | 2549 ft | 138 kts | 210° |
| 2026-05-03 20:18 | 43.44909 | -70.44233 | 2553 ft | 139 kts | 210° |
| 2026-05-03 20:19 | 43.44015 | -70.44705 | 2547 ft | 137 kts | 210° |
| 2026-05-03 20:19 | 43.43128 | -70.45178 | 2547 ft | 137 kts | 210° |
| 2026-05-03 20:19 | 43.42232 | -70.45655 | 2551 ft | 138 kts | 210° |
| 2026-05-03 20:19 | 43.41336 | -70.46130 | 2548 ft | 138 kts | 210° |
| 2026-05-03 20:20 | 43.40438 | -70.46607 | 2550 ft | 138 kts | 209° |
| 2026-05-03 20:20 | 43.39538 | -70.47084 | 2547 ft | 138 kts | 210° |
| 2026-05-03 20:20 | 43.38641 | -70.47559 | 2548 ft | 138 kts | 210° |
| 2026-05-03 20:20 | 43.37754 | -70.48031 | 2549 ft | 139 kts | 209° |
| 2026-05-03 20:21 | 43.36849 | -70.48510 | 2550 ft | 139 kts | 210° |
| 2026-05-03 20:21 | 43.35947 | -70.48987 | 2550 ft | 139 kts | 210° |
| 2026-05-03 20:21 | 43.35046 | -70.49464 | 2549 ft | 139 kts | 210° |
| 2026-05-03 20:21 | 43.34144 | -70.49942 | 2549 ft | 139 kts | 210° |
| 2026-05-03 20:22 | 43.33245 | -70.50419 | 2549 ft | 138 kts | 210° |
| 2026-05-03 20:22 | 43.32351 | -70.50892 | 2549 ft | 137 kts | 210° |
| 2026-05-03 20:22 | 43.31459 | -70.51364 | 2548 ft | 138 kts | 210° |
| 2026-05-03 20:22 | 43.30578 | -70.51830 | 2547 ft | 138 kts | 210° |
| 2026-05-03 20:23 | 43.29683 | -70.52303 | 2547 ft | 138 kts | 210° |
| 2026-05-03 20:23 | 43.28779 | -70.52782 | 2549 ft | 141 kts | 210° |
| 2026-05-03 20:23 | 43.27879 | -70.53254 | 2544 ft | 134 kts | 210° |
| 2026-05-03 20:23 | 43.27006 | -70.53716 | 2542 ft | 135 kts | 210° |
| 2026-05-03 20:24 | 43.26125 | -70.54182 | 2536 ft | 136 kts | 211° |
| 2026-05-03 20:24 | 43.25237 | -70.54652 | 2543 ft | 138 kts | 211° |
| 2026-05-03 20:24 | 43.24339 | -70.55126 | 2541 ft | 138 kts | 210° |
| 2026-05-03 20:24 | 43.23458 | -70.55589 | 2544 ft | 137 kts | 211° |
| 2026-05-03 20:25 | 43.22568 | -70.56059 | 2545 ft | 137 kts | 211° |
| 2026-05-03 20:25 | 43.21680 | -70.56528 | 2545 ft | 137 kts | 211° |
| 2026-05-03 20:25 | 43.20787 | -70.56998 | 2543 ft | 137 kts | 211° |
| 2026-05-03 20:25 | 43.19897 | -70.57467 | 2542 ft | 137 kts | 211° |
| 2026-05-03 20:26 | 43.19012 | -70.57933 | 2540 ft | 136 kts | 211° |
| 2026-05-03 20:26 | 43.18122 | -70.58402 | 2540 ft | 138 kts | 210° |
| 2026-05-03 20:26 | 43.17224 | -70.58875 | 2539 ft | 139 kts | 210° |
| 2026-05-03 20:26 | 43.16328 | -70.59346 | 2540 ft | 137 kts | 211° |
| 2026-05-03 20:27 | 43.15450 | -70.59807 | 2539 ft | 136 kts | 211° |
| 2026-05-03 20:27 | 43.14563 | -70.60274 | 2534 ft | 137 kts | 211° |
| 2026-05-03 20:27 | 43.13674 | -70.60742 | 2533 ft | 137 kts | 210° |
| 2026-05-03 20:27 | 43.12787 | -70.61208 | 2534 ft | 136 kts | 211° |
| 2026-05-03 20:28 | 43.11901 | -70.61674 | 2533 ft | 136 kts | 210° |
| 2026-05-03 20:28 | 43.11018 | -70.62136 | 2533 ft | 135 kts | 210° |
| 2026-05-03 20:28 | 43.10142 | -70.62596 | 2531 ft | 135 kts | 211° |
| 2026-05-03 20:28 | 43.09262 | -70.63060 | 2533 ft | 136 kts | 211° |
| 2026-05-03 20:29 | 43.08390 | -70.63517 | 2531 ft | 136 kts | 211° |
| 2026-05-03 20:29 | 43.07512 | -70.63976 | 2528 ft | 134 kts | 211° |
| 2026-05-03 20:29 | 43.06648 | -70.64429 | 2525 ft | 133 kts | 211° |
| 2026-05-03 20:29 | 43.05782 | -70.64884 | 2524 ft | 134 kts | 211° |
| 2026-05-03 20:30 | 43.04912 | -70.65341 | 2528 ft | 134 kts | 211° |
| 2026-05-03 20:30 | 43.04040 | -70.65797 | 2525 ft | 134 kts | 211° |
| 2026-05-03 20:30 | 43.03173 | -70.66252 | 2525 ft | 134 kts | 211° |
| 2026-05-03 20:30 | 43.02301 | -70.66709 | 2527 ft | 135 kts | 211° |
| 2026-05-03 20:31 | 43.01420 | -70.67171 | 2524 ft | 135 kts | 210° |
| 2026-05-03 20:31 | 43.00555 | -70.67622 | 2524 ft | 134 kts | 210° |
| 2026-05-03 20:31 | 42.99683 | -70.68078 | 2532 ft | 134 kts | 210° |
| 2026-05-03 20:31 | 42.98807 | -70.68537 | 2535 ft | 135 kts | 211° |
| 2026-05-03 20:32 | 42.97926 | -70.68998 | 2537 ft | 136 kts | 211° |
| 2026-05-03 20:32 | 42.97037 | -70.69462 | 2536 ft | 137 kts | 211° |
| 2026-05-03 20:32 | 42.96145 | -70.69928 | 2538 ft | 137 kts | 212° |
| 2026-05-03 20:32 | 42.95256 | -70.70392 | 2537 ft | 137 kts | 212° |
| 2026-05-03 20:33 | 42.94365 | -70.70858 | 2536 ft | 137 kts | 211° |
| 2026-05-03 20:33 | 42.93471 | -70.71325 | 2538 ft | 138 kts | 211° |
| 2026-05-03 20:33 | 42.92576 | -70.71791 | 2539 ft | 137 kts | 212° |
| 2026-05-03 20:33 | 42.91699 | -70.72248 | 2539 ft | 137 kts | 211° |
| 2026-05-03 20:34 | 42.90812 | -70.72711 | 2538 ft | 136 kts | 211° |
| 2026-05-03 20:34 | 42.89923 | -70.73175 | 2540 ft | 137 kts | 212° |
| 2026-05-03 20:34 | 42.89030 | -70.73641 | 2549 ft | 138 kts | 211° |
| 2026-05-03 20:34 | 42.88138 | -70.74105 | 2547 ft | 137 kts | 212° |
| 2026-05-03 20:35 | 42.87247 | -70.74569 | 2551 ft | 137 kts | 211° |
| 2026-05-03 20:35 | 42.86357 | -70.75033 | 2551 ft | 137 kts | 212° |
| 2026-05-03 20:35 | 42.85463 | -70.75499 | 2552 ft | 138 kts | 212° |
| 2026-05-03 20:35 | 42.84581 | -70.75957 | 2552 ft | 137 kts | 211° |
| 2026-05-03 20:36 | 42.83692 | -70.76419 | 2553 ft | 136 kts | 211° |
| 2026-05-03 20:36 | 42.82807 | -70.76879 | 2552 ft | 136 kts | 211° |
| 2026-05-03 20:36 | 42.81925 | -70.77337 | 2553 ft | 135 kts | 211° |
| 2026-05-03 20:36 | 42.81050 | -70.77792 | 2553 ft | 134 kts | 212° |
| 2026-05-03 20:37 | 42.80176 | -70.78247 | 2552 ft | 135 kts | 211° |
| 2026-05-03 20:37 | 42.79297 | -70.78704 | 2552 ft | 135 kts | 211° |
| 2026-05-03 20:37 | 42.78417 | -70.79161 | 2553 ft | 135 kts | 212° |
| 2026-05-03 20:37 | 42.77542 | -70.79615 | 2555 ft | 134 kts | 212° |
| 2026-05-03 20:38 | 42.76669 | -70.80068 | 2549 ft | 134 kts | 212° |
| 2026-05-03 20:38 | 42.75806 | -70.80516 | 2550 ft | 134 kts | 211° |
| 2026-05-03 20:38 | 42.74935 | -70.80968 | 2551 ft | 134 kts | 211° |
| 2026-05-03 20:38 | 42.74059 | -70.81423 | 2521 ft | 137 kts | 211° |
| 2026-05-03 20:39 | 42.73150 | -70.81897 | 2395 ft | 142 kts | 210° |
| 2026-05-03 20:39 | 42.72230 | -70.82369 | 2222 ft | 135 kts | 211° |
| 2026-05-03 20:39 | 42.71389 | -70.82798 | 2061 ft | 124 kts | 211° |
| 2026-05-03 20:39 | 42.70592 | -70.83213 | 2057 ft | 122 kts | 212° |
| 2026-05-03 20:40 | 42.69801 | -70.83625 | 2054 ft | 122 kts | 211° |
| 2026-05-03 20:40 | 42.69006 | -70.84039 | 2054 ft | 122 kts | 212° |
| 2026-05-03 20:40 | 42.68217 | -70.84446 | 2053 ft | 119 kts | 212° |
| 2026-05-03 20:40 | 42.67450 | -70.84842 | 2051 ft | 116 kts | 212° |
| 2026-05-03 20:41 | 42.66847 | -70.85453 | 1988 ft | 105 kts | 247° |
| 2026-05-03 20:41 | 42.66591 | -70.86292 | 2033 ft | 88 kts | 280° |
| 2026-05-03 20:41 | 42.67008 | -70.86639 | 2045 ft | 96 kts | 10° |
| 2026-05-03 20:41 | 42.67279 | -70.85696 | 2026 ft | 127 kts | 92° |
| 2026-05-03 20:42 | 42.67043 | -70.84517 | 1950 ft | 133 kts | 106° |
| 2026-05-03 20:42 | 42.67044 | -70.83289 | 1621 ft | 131 kts | 50° |
| 2026-05-03 20:42 | 42.67707 | -70.82940 | 1363 ft | 98 kts | 332° |
| 2026-05-03 20:42 | 42.68025 | -70.83683 | 1095 ft | 95 kts | 284° |
| 2026-05-03 20:43 | 42.68073 | -70.84507 | 1125 ft | 83 kts | 275° |
| 2026-05-03 20:43 | 42.68030 | -70.85257 | 1215 ft | 74 kts | 272° |
| 2026-05-03 20:43 | 42.67926 | -70.85946 | 1241 ft | 81 kts | 265° |
| 2026-05-03 20:43 | 42.67400 | -70.86426 | 1187 ft | 110 kts | 194° |
| 2026-05-03 20:44 | 42.66636 | -70.86431 | 1234 ft | 108 kts | 191° |
| 2026-05-03 20:44 | 42.65895 | -70.86426 | 1276 ft | 107 kts | 189° |
| 2026-05-03 20:44 | 42.65186 | -70.86541 | 1301 ft | 109 kts | 191° |
| 2026-05-03 20:44 | 42.64578 | -70.85945 | 1225 ft | 107 kts | 98° |
| 2026-05-03 20:45 | 42.64915 | -70.85481 | 968 ft | 72 kts | 351° |
| 2026-05-03 20:45 | 42.65384 | -70.85528 | 569 ft | 66 kts | 333° |
| 2026-05-03 20:45 | 42.65849 | -70.85532 | 322 ft | 69 kts | 3° |
| 2026-05-03 20:45 | 42.66305 | -70.85419 | 181 ft | 70 kts | 10° |
| 2026-05-03 20:46 | 42.66748 | -70.85272 | 70 ft | 54 kts | 13° |
| 2026-05-03 20:46 | 42.66858 | -70.85235 | 62 ft | 0 kts | 354° |